Time;durP1;ratioP1;P1;durP2;ratioP2;P2;SDS_P1;SDS_P2;PMS_P1;PMS_P2;Temp;Humidity;BMP_temperature;BMP_pressure;BME280_temperature;BME280_humidity;BME280_pressure;Samples;Min_cycle;Max_cycle;Signal;HPM_P1;HPM_P2
2023/01/30 04:57:53;;;;;;;21.98;10.75;;;;;;;-4.40;100.00;100744.28;5938869;28;20119;-89
2023/01/30 05:05:01;;;;;;;22.05;11.02;;;;;;;-4.51;100.00;100722.06;5372439;28;33801;-89
2023/01/30 05:08:06;;;;;;;22.62;11.30;;;;;;;-4.60;100.00;100731.25;5385062;28;33789;-89
2023/01/30 05:11:08;;;;;;;24.95;11.77;;;;;;;-4.62;100.00;100733.06;5384859;28;33759;-89
2023/01/30 05:14:11;;;;;;;24.05;12.48;;;;;;;-4.61;100.00;100725.13;5369547;28;34327;-89
2023/01/30 06:37:27;;;;;;;23.98;12.02;;;;;;;-4.65;100.00;100725.34;946117;28;20531;-89
2023/01/30 06:40:32;;;;;;;25.48;13.25;;;;;;;-4.58;100.00;100713.62;5368945;28;33109;-88
2023/01/30 06:43:34;;;;;;;28.75;14.82;;;;;;;-4.52;100.00;100697.56;5359721;28;33405;-89
2023/01/30 06:46:37;;;;;;;28.40;12.95;;;;;;;-4.20;100.00;100693.38;5407218;28;34280;-88
2023/01/30 06:49:40;;;;;;;28.67;12.68;;;;;;;-4.07;100.00;100701.50;5324898;33;33922;-88
2023/01/30 06:52:50;;;;;;;34.35;13.93;;;;;;;-3.84;100.00;100688.97;5352692;28;34302;-88
2023/01/30 06:55:53;;;;;;;;;;;;;;;-3.62;100.00;100694.84;5390843;28;34434;-89
2023/01/30 06:58:56;;;;;;;24.63;12.80;;;;;;;-3.29;100.00;100691.34;5364708;28;34618;-89
2023/01/30 07:01:59;;;;;;;25.88;13.38;;;;;;;-3.05;100.00;100691.81;5331654;33;35321;-89
2023/01/30 07:05:03;;;;;;;31.10;13.65;;;;;;;-3.01;100.00;100686.31;5332705;33;171292;-89
2023/01/30 07:08:07;;;;;;;31.08;13.60;;;;;;;-2.93;100.00;100692.94;5382119;28;34727;-87
2023/01/30 07:11:33;;;;;;;40.88;16.15;;;;;;;-1.81;100.00;100679.50;5567843;31;80419;-87
2023/01/30 07:14:37;;;;;;;36.90;13.85;;;;;;;-1.81;100.00;100679.50;5563649;32;33717;-88
2023/01/30 07:17:41;;;;;;;33.72;14.18;;;;;;;-2.29;100.00;100692.81;5562936;32;34231;-87
2023/01/30 07:20:48;;;;;;;26.45;13.50;;;;;;;-2.09;100.00;100680.25;5567525;32;33732;-87
2023/01/30 07:23:50;;;;;;;27.08;12.82;;;;;;;-1.93;100.00;100682.84;5573540;32;33896;-86
2023/01/30 07:26:53;;;;;;;25.35;12.37;;;;;;;-1.93;100.00;100682.84;5565685;32;33827;-88
2023/01/30 07:29:56;;;;;;;26.73;13.25;;;;;;;-1.96;100.00;100675.09;5558611;32;34063;-90
2023/01/30 07:32:59;;;;;;;26.33;11.88;;;;;;;-1.88;100.00;100679.00;5565881;32;33746;-89
2023/01/30 07:44:27;;;;;;;23.98;12.50;;;;;;;-1.65;100.00;100667.06;4934184;26;20087;-89
2023/01/30 07:47:41;;;;;;;28.58;13.07;;;;;;;-1.50;100.00;100667.06;5607471;26;34261;-89
2023/01/30 07:50:45;;;;;;;24.83;12.85;;;;;;;-1.45;100.00;100667.66;5632404;26;33630;-89
2023/01/30 07:58:14;;;;;;;28.25;14.32;;;;;;;-1.43;100.00;100648.13;989509;26;20459;-89
2023/01/30 08:01:17;;;;;;;27.87;12.55;;;;;;;-1.35;100.00;100660.84;5577651;26;32975;-89
2023/01/30 08:04:20;;;;;;;27.35;12.57;;;;;;;-1.26;100.00;100657.63;5590655;26;34753;-89
2023/01/30 08:07:23;;;;;;;29.05;13.32;;;;;;;-1.08;100.00;100654.78;5646725;26;34289;-89
2023/01/30 08:10:25;;;;;;;26.48;12.20;;;;;;;-0.96;100.00;100646.94;5658738;26;34630;-89
2023/01/30 08:13:29;;;;;;;25.80;11.60;;;;;;;-0.95;100.00;100647.78;5570233;32;33878;-89
2023/01/30 08:16:33;;;;;;;21.98;11.00;;;;;;;-0.69;100.00;100630.25;5557352;32;35041;-89
2023/01/30 08:19:36;;;;;;;23.30;10.80;;;;;;;-0.54;100.00;100605.47;5580956;26;34149;-89
2023/01/30 08:22:39;;;;;;;24.40;11.65;;;;;;;-0.35;100.00;100578.66;5581355;26;34201;-89
2023/01/30 08:25:43;;;;;;;24.42;11.85;;;;;;;-0.31;100.00;100571.34;5587037;26;34570;-88
2023/01/30 08:28:46;;;;;;;23.48;11.40;;;;;;;-0.14;100.00;100568.41;5566723;26;35257;-89
2023/01/30 08:44:58;;;;;;;24.85;12.73;;;;;;;0.13;100.00;100575.41;978554;26;20956;-88
2023/01/30 12:03:24;;;;;;;21.12;11.18;;;;;;;1.68;94.62;100254.53;5476022;27;31059;-90
2023/01/30 12:06:30;;;;;;;24.42;11.82;;;;;;;1.62;96.61;100246.25;5514621;27;33911;-90
2023/01/30 14:36:54;;;;;;;17.48;9.80;;;;;;;2.21;96.06;100107.69;1652457;27;20734;-87
2023/01/30 14:39:57;;;;;;;21.85;10.10;;;;;;;2.13;97.13;100092.41;5431913;32;34065;-87
2023/01/30 14:43:15;;;;;;;18.92;10.50;;;;;;;2.06;98.79;100095.75;5427154;32;33930;-89
2023/01/30 14:46:18;;;;;;;21.20;9.75;;;;;;;2.07;99.06;100095.59;5465240;27;33844;-88
2023/01/30 14:49:25;;;;;;;18.48;10.05;;;;;;;2.17;99.75;100098.31;5439965;32;34938;-89
2023/01/30 14:52:41;;;;;;;18.65;9.88;;;;;;;2.16;100.00;100101.94;5438385;32;33867;-89
2023/01/30 14:55:44;;;;;;;19.17;9.68;;;;;;;1.93;100.00;100099.44;5438097;32;34641;-88
2023/01/30 14:59:01;;;;;;;19.45;10.68;;;;;;;1.89;100.00;100095.34;5441710;32;33930;-89
2023/01/30 15:02:03;;;;;;;21.05;9.80;;;;;;;1.78;100.00;100092.75;5444072;32;34404;-88
2023/01/30 15:05:18;;;;;;;21.10;9.73;;;;;;;1.75;100.00;100093.81;5467180;32;33704;-88
2023/01/30 15:08:25;;;;;;;20.02;10.65;;;;;;;1.70;100.00;100092.56;5471315;27;35311;-89
2023/01/30 15:11:35;;;;;;;21.08;10.23;;;;;;;1.57;100.00;100096.22;5503714;27;33914;-88
2023/01/30 15:14:47;;;;;;;22.45;11.35;;;;;;;1.59;100.00;100094.28;5434391;32;34102;-87
2023/01/30 15:17:50;;;;;;;21.50;10.00;;;;;;;1.62;100.00;100102.97;5441469;32;34645;-89
2023/01/30 15:43:07;;;;;;;19.75;10.63;;;;;;;1.32;100.00;100096.56;5485259;27;32826;-88
2023/01/30 16:41:44;;;;;;;15.68;8.70;;;;;;;0.73;100.00;100144.59;1142870;27;20397;-89
2023/01/30 16:44:49;;;;;;;17.92;9.52;;;;;;;0.61;100.00;100144.59;5390353;33;31793;-90
2023/01/30 16:47:52;;;;;;;20.55;9.52;;;;;;;0.53;100.00;100144.38;5392302;33;34001;-89
2023/01/30 16:50:59;;;;;;;16.33;9.38;;;;;;;0.40;100.00;100141.81;5387725;33;34806;-89
2023/01/30 16:54:03;;;;;;;19.42;9.15;;;;;;;0.38;100.00;100143.75;5399382;32;34037;-89
2023/01/30 16:57:22;;;;;;;18.00;9.18;;;;;;;0.27;100.00;100141.06;5369013;33;34381;-89
2023/01/30 17:00:32;;;;;;;20.65;10.55;;;;;;;0.20;100.00;100132.75;5368553;33;35204;-89
